sensor_id;sensor_type;location;lat;lon;timestamp;P1;durP1;ratioP1;P2;durP2;ratioP2
36787;SDS011;22738;45.560;9.434;2022-10-19T00:01:32;41.58;;;22.08;;
36787;SDS011;22738;45.560;9.434;2022-10-19T00:08:16;49.33;;;23.30;;
36787;SDS011;22738;45.560;9.434;2022-10-19T00:14:57;41.88;;;21.13;;
36787;SDS011;22738;45.560;9.434;2022-10-19T00:21:38;44.75;;;19.38;;
36787;SDS011;22738;45.560;9.434;2022-10-19T00:28:19;37.35;;;19.08;;
36787;SDS011;22738;45.560;9.434;2022-10-19T00:35:00;37.85;;;17.98;;
36787;SDS011;22738;45.560;9.434;2022-10-19T00:41:44;32.55;;;17.48;;
36787;SDS011;22738;45.560;9.434;2022-10-19T00:48:27;36.17;;;17.50;;
36787;SDS011;22738;45.560;9.434;2022-10-19T00:55:11;35.17;;;16.95;;
36787;SDS011;22738;45.560;9.434;2022-10-19T01:01:53;34.88;;;17.60;;
36787;SDS011;22738;45.560;9.434;2022-10-19T01:08:34;32.47;;;17.20;;
36787;SDS011;22738;45.560;9.434;2022-10-19T01:28:44;36.13;;;17.67;;
36787;SDS011;22738;45.560;9.434;2022-10-19T01:35:43;35.72;;;18.73;;
36787;SDS011;22738;45.560;9.434;2022-10-19T01:49:42;35.45;;;17.92;;
36787;SDS011;22738;45.560;9.434;2022-10-19T01:56:28;35.38;;;17.05;;
36787;SDS011;22738;45.560;9.434;2022-10-19T02:03:11;33.33;;;17.33;;
36787;SDS011;22738;45.560;9.434;2022-10-19T02:09:55;33.20;;;16.77;;
36787;SDS011;22738;45.560;9.434;2022-10-19T02:16:38;33.03;;;17.05;;
36787;SDS011;22738;45.560;9.434;2022-10-19T02:23:24;28.00;;;14.02;;
36787;SDS011;22738;45.560;9.434;2022-10-19T02:30:10;26.33;;;14.97;;
36787;SDS011;22738;45.560;9.434;2022-10-19T02:36:54;27.15;;;14.02;;
36787;SDS011;22738;45.560;9.434;2022-10-19T02:43:37;24.90;;;13.83;;
36787;SDS011;22738;45.560;9.434;2022-10-19T02:50:21;23.48;;;12.48;;
36787;SDS011;22738;45.560;9.434;2022-10-19T02:57:05;23.20;;;12.77;;
36787;SDS011;22738;45.560;9.434;2022-10-19T03:04:17;26.58;;;13.75;;
36787;SDS011;22738;45.560;9.434;2022-10-19T03:10:58;24.15;;;13.52;;
36787;SDS011;22738;45.560;9.434;2022-10-19T03:17:39;22.88;;;12.82;;
36787;SDS011;22738;45.560;9.434;2022-10-19T03:24:20;24.60;;;12.38;;
36787;SDS011;22738;45.560;9.434;2022-10-19T03:31:02;23.35;;;12.30;;
36787;SDS011;22738;45.560;9.434;2022-10-19T03:37:43;24.25;;;12.18;;
36787;SDS011;22738;45.560;9.434;2022-10-19T03:44:24;24.27;;;11.07;;
36787;SDS011;22738;45.560;9.434;2022-10-19T03:51:12;24.77;;;13.48;;
36787;SDS011;22738;45.560;9.434;2022-10-19T03:57:55;22.15;;;11.65;;
36787;SDS011;22738;45.560;9.434;2022-10-19T04:04:37;20.63;;;12.10;;
36787;SDS011;22738;45.560;9.434;2022-10-19T04:11:19;23.80;;;11.93;;
36787;SDS011;22738;45.560;9.434;2022-10-19T04:18:03;24.23;;;11.80;;
36787;SDS011;22738;45.560;9.434;2022-10-19T04:24:44;20.92;;;11.65;;
36787;SDS011;22738;45.560;9.434;2022-10-19T04:31:25;22.73;;;12.43;;
36787;SDS011;22738;45.560;9.434;2022-10-19T04:38:07;24.90;;;12.23;;
36787;SDS011;22738;45.560;9.434;2022-10-19T04:44:48;26.33;;;11.90;;
36787;SDS011;22738;45.560;9.434;2022-10-19T04:51:29;22.00;;;11.48;;
36787;SDS011;22738;45.560;9.434;2022-10-19T04:58:12;22.50;;;11.90;;
36787;SDS011;22738;45.560;9.434;2022-10-19T05:04:53;24.77;;;12.40;;
36787;SDS011;22738;45.560;9.434;2022-10-19T05:11:35;28.05;;;12.30;;
36787;SDS011;22738;45.560;9.434;2022-10-19T05:18:16;25.35;;;12.57;;
36787;SDS011;22738;45.560;9.434;2022-10-19T05:24:57;22.98;;;11.35;;
36787;SDS011;22738;45.560;9.434;2022-10-19T05:31:38;22.50;;;11.82;;
36787;SDS011;22738;45.560;9.434;2022-10-19T05:38:19;24.80;;;12.02;;
36787;SDS011;22738;45.560;9.434;2022-10-19T05:45:00;21.33;;;11.50;;
36787;SDS011;22738;45.560;9.434;2022-10-19T05:51:42;26.25;;;11.50;;
36787;SDS011;22738;45.560;9.434;2022-10-19T05:58:23;22.55;;;11.30;;
36787;SDS011;22738;45.560;9.434;2022-10-19T06:05:05;20.75;;;10.70;;
36787;SDS011;22738;45.560;9.434;2022-10-19T06:11:46;19.98;;;10.60;;
36787;SDS011;22738;45.560;9.434;2022-10-19T06:18:27;21.77;;;10.38;;
36787;SDS011;22738;45.560;9.434;2022-10-19T06:25:09;18.50;;;11.05;;
36787;SDS011;22738;45.560;9.434;2022-10-19T06:31:50;19.58;;;10.23;;
36787;SDS011;22738;45.560;9.434;2022-10-19T06:38:33;18.00;;;9.43;;
36787;SDS011;22738;45.560;9.434;2022-10-19T06:45:14;24.63;;;12.13;;
36787;SDS011;22738;45.560;9.434;2022-10-19T06:51:56;23.33;;;11.23;;
36787;SDS011;22738;45.560;9.434;2022-10-19T06:58:37;33.95;;;15.48;;
36787;SDS011;22738;45.560;9.434;2022-10-19T07:05:19;29.52;;;15.77;;
36787;SDS011;22738;45.560;9.434;2022-10-19T07:12:00;31.45;;;15.25;;
36787;SDS011;22738;45.560;9.434;2022-10-19T07:18:41;36.97;;;17.80;;
36787;SDS011;22738;45.560;9.434;2022-10-19T07:25:25;30.37;;;14.57;;
36787;SDS011;22738;45.560;9.434;2022-10-19T07:32:06;26.85;;;12.38;;
36787;SDS011;22738;45.560;9.434;2022-10-19T07:38:47;14.88;;;8.55;;
36787;SDS011;22738;45.560;9.434;2022-10-19T07:45:28;13.52;;;7.63;;
36787;SDS011;22738;45.560;9.434;2022-10-19T07:52:09;19.60;;;10.60;;
36787;SDS011;22738;45.560;9.434;2022-10-19T07:58:51;20.15;;;9.60;;
36787;SDS011;22738;45.560;9.434;2022-10-19T08:05:34;15.10;;;7.13;;
36787;SDS011;22738;45.560;9.434;2022-10-19T08:12:15;18.35;;;10.05;;
36787;SDS011;22738;45.560;9.434;2022-10-19T08:18:57;20.35;;;7.75;;
36787;SDS011;22738;45.560;9.434;2022-10-19T08:25:40;25.63;;;8.63;;
36787;SDS011;22738;45.560;9.434;2022-10-19T08:32:21;19.15;;;10.82;;
36787;SDS011;22738;45.560;9.434;2022-10-19T08:39:03;21.10;;;12.13;;
36787;SDS011;22738;45.560;9.434;2022-10-19T08:53:36;20.23;;;11.57;;
36787;SDS011;22738;45.560;9.434;2022-10-19T09:00:29;36.20;;;15.35;;
36787;SDS011;22738;45.560;9.434;2022-10-19T09:07:33;32.25;;;13.50;;
36787;SDS011;22738;45.560;9.434;2022-10-19T09:14:27;31.23;;;15.43;;
36787;SDS011;22738;45.560;9.434;2022-10-19T09:21:15;26.92;;;13.98;;
36787;SDS011;22738;45.560;9.434;2022-10-19T09:28:07;28.75;;;15.05;;
36787;SDS011;22738;45.560;9.434;2022-10-19T09:35:07;28.38;;;15.02;;
36787;SDS011;22738;45.560;9.434;2022-10-19T09:41:58;47.38;;;19.40;;
36787;SDS011;22738;45.560;9.434;2022-10-19T09:48:48;29.95;;;15.32;;
36787;SDS011;22738;45.560;9.434;2022-10-19T09:55:35;35.60;;;16.80;;
36787;SDS011;22738;45.560;9.434;2022-10-19T10:02:20;41.35;;;19.25;;
36787;SDS011;22738;45.560;9.434;2022-10-19T10:09:14;43.10;;;19.60;;
36787;SDS011;22738;45.560;9.434;2022-10-19T10:15:59;34.63;;;17.50;;
36787;SDS011;22738;45.560;9.434;2022-10-19T10:22:49;38.03;;;19.38;;
36787;SDS011;22738;45.560;9.434;2022-10-19T10:29:36;39.90;;;18.75;;
36787;SDS011;22738;45.560;9.434;2022-10-19T10:36:18;32.58;;;17.20;;
36787;SDS011;22738;45.560;9.434;2022-10-19T10:43:11;31.73;;;16.42;;
36787;SDS011;22738;45.560;9.434;2022-10-19T10:49:56;38.72;;;19.65;;
36787;SDS011;22738;45.560;9.434;2022-10-19T10:56:40;41.10;;;20.33;;
36787;SDS011;22738;45.560;9.434;2022-10-19T11:03:26;32.13;;;14.68;;
36787;SDS011;22738;45.560;9.434;2022-10-19T11:17:04;35.17;;;19.13;;
36787;SDS011;22738;45.560;9.434;2022-10-19T11:30:36;45.70;;;23.95;;
36787;SDS011;22738;45.560;9.434;2022-10-19T11:37:29;33.92;;;17.65;;
36787;SDS011;22738;45.560;9.434;2022-10-19T11:44:25;36.42;;;18.60;;
36787;SDS011;22738;45.560;9.434;2022-10-19T11:51:37;47.70;;;24.70;;
36787;SDS011;22738;45.560;9.434;2022-10-19T12:05:50;59.75;;;26.83;;
36787;SDS011;22738;45.560;9.434;2022-10-19T12:12:31;35.83;;;19.42;;
36787;SDS011;22738;45.560;9.434;2022-10-19T12:19:17;45.53;;;22.98;;
36787;SDS011;22738;45.560;9.434;2022-10-19T12:26:06;50.67;;;25.02;;
36787;SDS011;22738;45.560;9.434;2022-10-19T12:46:30;46.10;;;23.88;;
36787;SDS011;22738;45.560;9.434;2022-10-19T12:53:27;45.85;;;23.40;;
36787;SDS011;22738;45.560;9.434;2022-10-19T13:07:14;28.65;;;15.18;;
36787;SDS011;22738;45.560;9.434;2022-10-19T13:20:49;41.90;;;22.20;;
36787;SDS011;22738;45.560;9.434;2022-10-19T13:27:34;40.78;;;20.27;;
36787;SDS011;22738;45.560;9.434;2022-10-19T13:34:16;49.28;;;23.85;;
36787;SDS011;22738;45.560;9.434;2022-10-19T13:41:02;35.30;;;17.13;;
36787;SDS011;22738;45.560;9.434;2022-10-19T13:47:56;28.85;;;14.55;;
36787;SDS011;22738;45.560;9.434;2022-10-19T14:08:42;47.47;;;23.73;;
36787;SDS011;22738;45.560;9.434;2022-10-19T14:15:27;43.78;;;21.33;;
36787;SDS011;22738;45.560;9.434;2022-10-19T14:22:21;41.03;;;19.48;;
36787;SDS011;22738;45.560;9.434;2022-10-19T14:29:11;43.53;;;22.45;;
36787;SDS011;22738;45.560;9.434;2022-10-19T14:35:53;43.88;;;20.55;;
36787;SDS011;22738;45.560;9.434;2022-10-19T14:42:44;32.53;;;16.50;;
36787;SDS011;22738;45.560;9.434;2022-10-19T14:49:26;38.83;;;18.63;;
36787;SDS011;22738;45.560;9.434;2022-10-19T14:56:15;44.28;;;23.60;;
36787;SDS011;22738;45.560;9.434;2022-10-19T15:03:02;47.63;;;21.63;;
36787;SDS011;22738;45.560;9.434;2022-10-19T15:09:53;37.13;;;18.83;;
36787;SDS011;22738;45.560;9.434;2022-10-19T15:16:42;48.22;;;23.40;;
36787;SDS011;22738;45.560;9.434;2022-10-19T15:23:44;41.72;;;20.95;;
36787;SDS011;22738;45.560;9.434;2022-10-19T15:30:30;45.90;;;22.00;;
36787;SDS011;22738;45.560;9.434;2022-10-19T15:37:16;36.78;;;18.23;;
36787;SDS011;22738;45.560;9.434;2022-10-19T15:44:02;34.58;;;17.50;;
36787;SDS011;22738;45.560;9.434;2022-10-19T15:50:46;44.53;;;21.35;;
36787;SDS011;22738;45.560;9.434;2022-10-19T16:04:20;42.28;;;20.67;;
36787;SDS011;22738;45.560;9.434;2022-10-19T16:11:01;53.20;;;25.08;;
36787;SDS011;22738;45.560;9.434;2022-10-19T16:17:44;34.53;;;16.75;;
36787;SDS011;22738;45.560;9.434;2022-10-19T16:24:29;31.40;;;15.23;;
36787;SDS011;22738;45.560;9.434;2022-10-19T16:31:10;35.60;;;16.88;;
36787;SDS011;22738;45.560;9.434;2022-10-19T16:37:51;32.58;;;15.48;;
36787;SDS011;22738;45.560;9.434;2022-10-19T16:44:32;36.17;;;17.45;;
36787;SDS011;22738;45.560;9.434;2022-10-19T16:51:15;42.72;;;19.10;;
36787;SDS011;22738;45.560;9.434;2022-10-19T16:58:08;42.80;;;19.15;;
36787;SDS011;22738;45.560;9.434;2022-10-19T17:04:50;46.67;;;21.23;;
36787;SDS011;22738;45.560;9.434;2022-10-19T17:11:32;47.63;;;22.05;;
36787;SDS011;22738;45.560;9.434;2022-10-19T17:18:14;47.70;;;22.05;;
36787;SDS011;22738;45.560;9.434;2022-10-19T17:24:55;54.10;;;25.08;;
36787;SDS011;22738;45.560;9.434;2022-10-19T17:31:39;46.93;;;22.43;;
36787;SDS011;22738;45.560;9.434;2022-10-19T17:38:21;51.17;;;22.92;;
36787;SDS011;22738;45.560;9.434;2022-10-19T17:45:05;52.63;;;23.55;;
36787;SDS011;22738;45.560;9.434;2022-10-19T17:51:47;52.35;;;23.85;;
36787;SDS011;22738;45.560;9.434;2022-10-19T17:58:31;57.35;;;23.60;;
36787;SDS011;22738;45.560;9.434;2022-10-19T18:05:13;48.10;;;22.48;;
36787;SDS011;22738;45.560;9.434;2022-10-19T18:11:55;51.55;;;23.63;;
36787;SDS011;22738;45.560;9.434;2022-10-19T18:18:37;51.80;;;25.20;;
36787;SDS011;22738;45.560;9.434;2022-10-19T18:25:19;56.20;;;25.98;;
36787;SDS011;22738;45.560;9.434;2022-10-19T18:32:00;58.40;;;24.63;;
36787;SDS011;22738;45.560;9.434;2022-10-19T18:38:41;61.15;;;27.67;;
36787;SDS011;22738;45.560;9.434;2022-10-19T18:45:22;67.28;;;28.58;;
36787;SDS011;22738;45.560;9.434;2022-10-19T18:52:05;57.53;;;26.23;;
36787;SDS011;22738;45.560;9.434;2022-10-19T18:58:46;74.10;;;31.17;;
36787;SDS011;22738;45.560;9.434;2022-10-19T19:05:27;72.22;;;29.58;;
36787;SDS011;22738;45.560;9.434;2022-10-19T19:12:08;59.25;;;28.88;;
36787;SDS011;22738;45.560;9.434;2022-10-19T19:18:49;55.85;;;26.58;;
36787;SDS011;22738;45.560;9.434;2022-10-19T19:25:31;58.55;;;27.05;;
36787;SDS011;22738;45.560;9.434;2022-10-19T19:32:12;55.90;;;27.17;;
36787;SDS011;22738;45.560;9.434;2022-10-19T19:38:54;61.78;;;26.95;;
36787;SDS011;22738;45.560;9.434;2022-10-19T19:45:36;53.90;;;23.63;;
36787;SDS011;22738;45.560;9.434;2022-10-19T19:52:17;57.72;;;26.48;;
36787;SDS011;22738;45.560;9.434;2022-10-19T19:58:59;51.15;;;25.23;;
36787;SDS011;22738;45.560;9.434;2022-10-19T20:05:43;56.30;;;26.55;;
36787;SDS011;22738;45.560;9.434;2022-10-19T20:12:24;57.90;;;25.58;;
36787;SDS011;22738;45.560;9.434;2022-10-19T20:19:08;56.40;;;26.83;;
36787;SDS011;22738;45.560;9.434;2022-10-19T20:25:50;59.35;;;26.10;;
36787;SDS011;22738;45.560;9.434;2022-10-19T20:32:33;66.47;;;29.48;;
36787;SDS011;22738;45.560;9.434;2022-10-19T20:39:14;58.80;;;26.52;;
36787;SDS011;22738;45.560;9.434;2022-10-19T20:46:00;64.30;;;27.58;;
36787;SDS011;22738;45.560;9.434;2022-10-19T20:52:43;63.08;;;27.52;;
36787;SDS011;22738;45.560;9.434;2022-10-19T20:59:24;61.83;;;26.80;;
36787;SDS011;22738;45.560;9.434;2022-10-19T21:06:07;63.83;;;26.42;;
36787;SDS011;22738;45.560;9.434;2022-10-19T21:12:48;58.03;;;24.42;;
36787;SDS011;22738;45.560;9.434;2022-10-19T21:19:29;57.67;;;26.10;;
36787;SDS011;22738;45.560;9.434;2022-10-19T21:26:11;69.43;;;28.67;;
36787;SDS011;22738;45.560;9.434;2022-10-19T21:32:52;78.05;;;32.53;;
36787;SDS011;22738;45.560;9.434;2022-10-19T21:39:34;78.82;;;33.53;;
36787;SDS011;22738;45.560;9.434;2022-10-19T21:46:17;79.85;;;31.45;;
36787;SDS011;22738;45.560;9.434;2022-10-19T21:53:00;66.95;;;29.15;;
36787;SDS011;22738;45.560;9.434;2022-10-19T21:59:42;62.85;;;28.17;;
36787;SDS011;22738;45.560;9.434;2022-10-19T22:06:28;58.17;;;24.52;;
36787;SDS011;22738;45.560;9.434;2022-10-19T22:13:11;55.00;;;22.63;;
36787;SDS011;22738;45.560;9.434;2022-10-19T22:19:53;44.50;;;20.30;;
36787;SDS011;22738;45.560;9.434;2022-10-19T22:26:38;45.08;;;20.05;;
36787;SDS011;22738;45.560;9.434;2022-10-19T22:33:21;47.80;;;19.90;;
36787;SDS011;22738;45.560;9.434;2022-10-19T22:40:03;35.70;;;17.48;;
36787;SDS011;22738;45.560;9.434;2022-10-19T23:01:22;42.67;;;18.25;;
36787;SDS011;22738;45.560;9.434;2022-10-19T23:08:03;47.75;;;21.33;;
36787;SDS011;22738;45.560;9.434;2022-10-19T23:14:44;42.13;;;19.42;;
36787;SDS011;22738;45.560;9.434;2022-10-19T23:21:25;36.83;;;19.73;;
36787;SDS011;22738;45.560;9.434;2022-10-19T23:28:06;36.55;;;17.80;;
36787;SDS011;22738;45.560;9.434;2022-10-19T23:34:47;43.25;;;18.35;;
36787;SDS011;22738;45.560;9.434;2022-10-19T23:41:28;37.25;;;17.77;;
36787;SDS011;22738;45.560;9.434;2022-10-19T23:48:09;35.70;;;18.15;;
36787;SDS011;22738;45.560;9.434;2022-10-19T23:54:50;41.20;;;18.40;;
